El Quimilar, Argentina
Current Conditions -  °F | °C
As of 1:00 PM on Monday 22 Dec 2014 (Local Time) from SASJ Reporting Station
Overcast Overcast  
Wind Chill: 63°   Ceiling: 10000
Heat Index: 63°   Visibility: 6mi
Dew Point: 52°   Wind: 9mph
Humidity: 68%   Direction: 180°S
Pressure: 30.15"   Gusts: NA
Location:  23.33°S, 64.07°W
Report Text: SASJ 221600Z 18008KT 110V270 9999 SCT025OVC100 17/11 Q1021
Loading
Personal Weather Stations






























Interactive Weather Map New forecast layout! Learn more

10-Day Weather Forecast

Advertisements
Track Severe Weather on mobile